createdAt,value
2022-12-20T00:00:13.612Z,100912.60
2022-12-20T00:03:02.307Z,100901.61
2022-12-20T00:05:31.573Z,100902.98
2022-12-20T00:08:00.147Z,100897.63
2022-12-20T00:10:28.831Z,100894.32
2022-12-20T00:12:59.460Z,100889.22
2022-12-20T00:15:28.460Z,100886.95
2022-12-20T00:17:57.725Z,100888.12
2022-12-20T00:20:27.668Z,100881.08
2022-12-20T00:22:56.582Z,100891.04
2022-12-20T00:25:25.369Z,100877.61
2022-12-20T00:27:54.128Z,100872.70
2022-12-20T00:30:23.345Z,100868.60
2022-12-20T00:32:52.125Z,100865.48
2022-12-20T00:35:21.827Z,100866.04
2022-12-20T00:37:50.425Z,100864.73
2022-12-20T00:40:19.099Z,100870.54
2022-12-20T00:42:49.221Z,100861.61
2022-12-20T00:45:17.797Z,100856.38
2022-12-20T00:47:46.701Z,100850.40
2022-12-20T00:50:15.482Z,100858.76
2022-12-20T00:52:44.371Z,100857.89
2022-12-20T00:55:13.267Z,100846.13
2022-12-20T00:57:42.160Z,100852.09
2022-12-20T01:00:12.103Z,100858.44
2022-12-20T01:02:40.798Z,100875.64
2022-12-20T01:05:09.940Z,100877.54
2022-12-20T01:07:38.739Z,100881.90
2022-12-20T01:10:08.544Z,100890.17
2022-12-20T01:12:37.113Z,100892.09
2022-12-20T01:15:06.700Z,100896.51
2022-12-20T01:17:35.562Z,100889.91
2022-12-20T01:20:05.265Z,100889.50
2022-12-20T01:22:33.929Z,100892.03
2022-12-20T01:25:02.593Z,100907.45
2022-12-20T01:27:31.376Z,100905.80
2022-12-20T01:30:00.289Z,100900.14
2022-12-20T01:32:29.064Z,100892.66
2022-12-20T01:34:57.735Z,100891.16
2022-12-20T01:37:29.110Z,100891.86
2022-12-20T01:39:58.992Z,100898.27
2022-12-20T01:42:27.511Z,100893.63
2022-12-20T01:44:58.432Z,100888.52
2022-12-20T01:47:31.442Z,100880.37
2022-12-20T01:50:02.294Z,100867.20
2022-12-20T01:52:37.855Z,100858.56
2022-12-20T01:55:11.447Z,100850.30
2022-12-20T01:57:48.024Z,100855.14
2022-12-20T02:00:17.598Z,100850.06
2022-12-20T02:02:49.038Z,100847.33
2022-12-20T02:05:19.854Z,100843.80
2022-12-20T02:07:51.604Z,100832.11
2022-12-20T02:10:21.740Z,100831.47
2022-12-20T02:12:55.959Z,100831.64
2022-12-20T02:15:56.809Z,100822.70
2022-12-20T02:18:30.612Z,100813.50
2022-12-20T02:21:33.303Z,100803.79
2022-12-20T02:24:24.181Z,100807.15
2022-12-20T02:27:30.763Z,100805.70
2022-12-20T02:30:15.334Z,100806.55
2022-12-20T02:32:50.226Z,100797.59
2022-12-20T02:35:23.335Z,100792.05
2022-12-20T02:37:58.056Z,100783.65
2022-12-20T02:40:38.752Z,100777.73
2022-12-20T02:43:29.564Z,100775.92
2022-12-20T02:45:59.386Z,100774.52
2022-12-20T02:48:30.535Z,100768.08
2022-12-20T02:51:00.208Z,100763.09
2022-12-20T02:53:30.032Z,100760.29
2022-12-20T02:56:12.204Z,100768.21
2022-12-20T02:58:53.879Z,100763.71
2022-12-20T03:01:28.624Z,100757.77
2022-12-20T03:03:59.243Z,100750.87
2022-12-20T03:06:28.367Z,100750.55
2022-12-20T03:08:57.366Z,100752.02
2022-12-20T03:11:28.517Z,100759.52
2022-12-20T03:13:57.743Z,100757.45
2022-12-20T03:16:26.865Z,100755.51
2022-12-20T03:18:55.783Z,100756.23
2022-12-20T03:21:24.607Z,100750.52
2022-12-20T03:23:53.581Z,100740.01
2022-12-20T03:26:22.854Z,100747.04
2022-12-20T03:28:55.658Z,100753.45
2022-12-20T03:31:27.669Z,100753.93
2022-12-20T03:33:57.847Z,100750.97
2022-12-20T03:36:26.755Z,100741.96
2022-12-20T03:39:01.347Z,100736.60
2022-12-20T03:41:32.480Z,100745.49
2022-12-20T03:44:01.394Z,100744.27
2022-12-20T03:46:30.667Z,100745.28
2022-12-20T03:48:59.769Z,100747.91
2022-12-20T03:51:29.673Z,100751.00
2022-12-20T03:53:58.867Z,100758.23
2022-12-20T03:56:38.735Z,100755.91
2022-12-20T03:59:07.411Z,100749.98
2022-12-20T04:01:37.120Z,100743.33
2022-12-20T04:04:08.688Z,100752.76
2022-12-20T04:06:37.686Z,100748.21
2022-12-20T04:09:07.286Z,100746.87
2022-12-20T04:11:41.308Z,100748.45
2022-12-20T04:14:13.157Z,100748.77
2022-12-20T04:16:42.505Z,100752.13
2022-12-20T04:19:12.599Z,100752.85
2022-12-20T04:21:45.151Z,100745.20
2022-12-20T04:24:14.853Z,100745.67
2022-12-20T04:27:04.258Z,100746.16
2022-12-20T04:29:33.123Z,100752.77
2022-12-20T04:32:02.731Z,100748.51
2022-12-20T04:34:31.812Z,100754.23
2022-12-20T04:37:01.038Z,100761.90
2022-12-20T04:39:42.055Z,100766.34
2022-12-20T04:42:19.444Z,100758.91
2022-12-20T04:44:48.169Z,100761.70
2022-12-20T04:47:19.196Z,100765.48
2022-12-20T04:49:47.794Z,100763.27
2022-12-20T04:52:35.119Z,100763.31
2022-12-20T04:55:04.933Z,100749.30
2022-12-20T04:57:36.149Z,100758.82
2022-12-20T05:00:07.605Z,100762.64
2022-12-20T05:02:39.522Z,100764.75
2022-12-20T05:05:11.853Z,100762.44
2022-12-20T05:07:45.961Z,100762.30
2022-12-20T05:10:16.521Z,100764.82
2022-12-20T05:12:45.699Z,100760.75
2022-12-20T05:15:20.846Z,100756.93
2022-12-20T05:17:49.916Z,100746.51
2022-12-20T05:20:19.946Z,100749.01
2022-12-20T05:23:08.283Z,100754.11
2022-12-20T05:25:58.975Z,100763.71
2022-12-20T05:28:27.993Z,100771.13
2022-12-20T05:30:57.193Z,100780.52
2022-12-20T05:33:30.524Z,100778.55
2022-12-20T05:36:03.327Z,100763.75
2022-12-20T05:38:32.000Z,100760.21
2022-12-20T05:41:01.984Z,100757.64
2022-12-20T05:43:30.957Z,100748.44
2022-12-20T05:46:00.765Z,100767.61
2022-12-20T05:48:35.190Z,100763.54
2022-12-20T05:51:06.210Z,100758.86
2022-12-20T05:53:37.873Z,100745.17
2022-12-20T05:56:07.577Z,100749.71
2022-12-20T05:58:39.310Z,100740.59
2022-12-20T06:01:09.285Z,100746.48
2022-12-20T06:03:41.072Z,100742.97
2022-12-20T06:06:15.849Z,100751.05
2022-12-20T06:08:48.962Z,100748.09
2022-12-20T06:11:29.380Z,100738.89
2022-12-20T06:14:11.704Z,100735.09
2022-12-20T06:16:45.635Z,100741.83
2022-12-20T06:19:21.164Z,100748.04
2022-12-20T06:21:51.497Z,100737.30
2022-12-20T06:24:29.385Z,100729.20
2022-12-20T06:26:58.704Z,100736.06
2022-12-20T06:29:28.182Z,100733.46
2022-12-20T06:32:05.837Z,100727.61
2022-12-20T06:34:34.873Z,100724.59
2022-12-20T06:37:03.876Z,100733.48
2022-12-20T06:39:35.560Z,100740.21
2022-12-20T06:42:07.325Z,100733.07
2022-12-20T06:44:37.502Z,100726.30
2022-12-20T06:47:06.888Z,100726.45
2022-12-20T06:49:35.582Z,100723.94
2022-12-20T06:52:09.705Z,100727.22
2022-12-20T06:54:50.866Z,100726.61
2022-12-20T06:57:21.693Z,100731.73
2022-12-20T06:59:51.096Z,100732.67
2022-12-20T07:02:20.141Z,100734.89
2022-12-20T07:04:49.114Z,100742.48
2022-12-20T07:07:17.773Z,100742.56
2022-12-20T07:09:47.505Z,100742.07
2022-12-20T07:12:16.400Z,100736.14
2022-12-20T07:14:45.378Z,100741.05
2022-12-20T07:17:14.184Z,100741.54
2022-12-20T07:19:50.251Z,100738.25
2022-12-20T07:22:20.106Z,100745.27
2022-12-20T07:24:48.907Z,100738.38
2022-12-20T07:27:18.551Z,100737.60
2022-12-20T07:29:47.135Z,100737.87
2022-12-20T07:32:16.038Z,100737.15
2022-12-20T07:34:45.193Z,100738.48
2022-12-20T07:37:14.417Z,100738.11
2022-12-20T07:39:44.915Z,100732.74
2022-12-20T07:42:15.973Z,100738.92
2022-12-20T07:44:46.977Z,100739.55
2022-12-20T07:47:17.927Z,100740.73
2022-12-20T07:49:50.649Z,100733.52
2022-12-20T07:52:22.719Z,100736.81
2022-12-20T07:54:56.955Z,100728.45
2022-12-20T07:57:33.087Z,100730.10
2022-12-20T08:00:05.265Z,100733.60
2022-12-20T08:03:18.054Z,100730.81
2022-12-20T08:05:53.725Z,100726.78
2022-12-20T08:08:26.303Z,100722.33
2022-12-20T08:10:56.828Z,100718.79
2022-12-20T08:13:28.596Z,100728.42
2022-12-20T08:16:00.990Z,100728.13
2022-12-20T08:18:31.494Z,100730.17
2022-12-20T08:21:03.119Z,100734.66
2022-12-20T08:23:34.108Z,100740.84
2022-12-20T08:26:04.897Z,100740.58
2022-12-20T08:28:38.617Z,100739.48
2022-12-20T08:31:10.526Z,100738.50
2022-12-20T08:33:41.702Z,100734.52
2022-12-20T08:36:13.595Z,100730.58
2022-12-20T08:38:45.139Z,100727.91
2022-12-20T08:41:18.016Z,100730.73
2022-12-20T08:43:49.452Z,100731.37
2022-12-20T08:46:20.627Z,100728.64
2022-12-20T08:48:51.467Z,100724.70
2022-12-20T08:51:22.560Z,100721.92
2022-12-20T08:53:53.880Z,100734.12
2022-12-20T08:56:25.103Z,100734.98
2022-12-20T08:58:56.907Z,100737.05
2022-12-20T09:01:28.342Z,100737.17
2022-12-20T09:03:58.981Z,100737.09
2022-12-20T09:06:29.770Z,100738.86
2022-12-20T09:09:01.791Z,100731.93
2022-12-20T09:11:32.900Z,100735.65
2022-12-20T09:14:04.065Z,100732.33
2022-12-20T09:16:34.921Z,100738.57
2022-12-20T09:19:06.771Z,100734.50
2022-12-20T09:21:37.680Z,100737.02
2022-12-20T09:24:08.880Z,100739.16
2022-12-20T09:26:41.692Z,100735.40
2022-12-20T09:29:12.554Z,100733.32
2022-12-20T09:31:41.951Z,100739.16
2022-12-20T09:34:16.425Z,100736.70
2022-12-20T09:36:47.650Z,100733.19
2022-12-20T09:39:19.734Z,100727.16
2022-12-20T09:41:56.230Z,100719.66
2022-12-20T09:44:34.346Z,100704.32
2022-12-20T09:47:20.843Z,100684.27
2022-12-20T09:49:54.521Z,100686.81
2022-12-20T09:52:30.764Z,100692.52
2022-12-20T09:55:21.696Z,100684.02
2022-12-20T09:57:52.233Z,100689.79
2022-12-20T10:00:22.431Z,100694.08
2022-12-20T10:03:02.079Z,100703.54
2022-12-20T10:05:41.232Z,100702.56
2022-12-20T10:08:17.024Z,100697.80
2022-12-20T10:11:05.593Z,100698.30
2022-12-20T10:14:09.721Z,100705.33
2022-12-20T10:16:51.701Z,100712.11
2022-12-20T10:20:09.984Z,100724.68
2022-12-20T10:22:47.249Z,100726.56
2022-12-20T10:25:24.194Z,100734.05
2022-12-20T10:27:57.266Z,100727.11
2022-12-20T10:30:27.529Z,100725.51
2022-12-20T10:32:58.278Z,100721.08
2022-12-20T10:35:26.749Z,100719.80
2022-12-20T10:38:14.176Z,100710.83
2022-12-20T10:41:20.026Z,100712.92
2022-12-20T10:43:50.455Z,100689.82
2022-12-20T10:46:19.694Z,100687.65
2022-12-20T10:48:49.413Z,100687.52
2022-12-20T10:51:22.986Z,100682.05
2022-12-20T10:54:02.709Z,100685.38
2022-12-20T10:56:36.688Z,100682.15
2022-12-20T10:59:17.805Z,100678.08
2022-12-20T11:01:48.363Z,100674.64
2022-12-20T11:04:33.549Z,100675.73
2022-12-20T11:07:04.323Z,100671.11
2022-12-20T11:09:37.917Z,100666.57
2022-12-20T11:12:14.740Z,100660.29
2022-12-20T11:14:45.431Z,100662.33
2022-12-20T11:17:39.231Z,100660.30
2022-12-20T11:20:46.087Z,100651.75
2022-12-20T11:23:43.343Z,100641.02
2022-12-20T11:26:14.460Z,100646.77
2022-12-20T11:29:02.565Z,100646.64
2022-12-20T11:31:53.798Z,100642.40
2022-12-20T11:34:33.389Z,100633.66
2022-12-20T11:37:29.036Z,100637.21
2022-12-20T11:40:18.814Z,100636.98
2022-12-20T11:43:14.291Z,100644.40
2022-12-20T11:46:23.582Z,100648.55
2022-12-20T11:49:02.929Z,100639.05
2022-12-20T11:51:49.352Z,100642.92
2022-12-20T11:54:30.458Z,100633.54
2022-12-20T11:57:09.394Z,100611.09
2022-12-20T11:59:40.959Z,100605.91
2022-12-20T12:02:27.443Z,100614.63
2022-12-20T12:05:03.273Z,100621.34
2022-12-20T12:07:37.446Z,100631.52
2022-12-20T12:10:20.421Z,100643.56
2022-12-20T12:13:13.176Z,100648.25
2022-12-20T12:15:53.717Z,100629.72
2022-12-20T12:18:29.729Z,100615.07
2022-12-20T12:21:10.373Z,100633.67
2022-12-20T12:24:00.042Z,100633.56
2022-12-20T12:26:39.783Z,100641.17
2022-12-20T12:29:21.410Z,100640.83
2022-12-20T12:32:01.251Z,100637.41
2022-12-20T12:35:02.754Z,100641.44
2022-12-20T12:38:11.596Z,100644.68
2022-12-20T12:41:25.029Z,100636.05
2022-12-20T12:43:58.753Z,100618.95
2022-12-20T12:46:33.342Z,100602.18
2022-12-20T12:49:05.334Z,100587.19
2022-12-20T12:51:42.124Z,100592.19
2022-12-20T12:54:29.234Z,100595.48
2022-12-20T12:57:08.872Z,100599.97
2022-12-20T12:59:39.726Z,100604.44
2022-12-20T13:02:16.994Z,100592.08
2022-12-20T13:05:02.858Z,100589.06
2022-12-20T13:07:34.093Z,100582.73
2022-12-20T13:10:30.864Z,100574.20
2022-12-20T13:13:03.689Z,100579.86
2022-12-20T13:15:35.193Z,100583.73
2022-12-20T13:18:15.329Z,100587.81
2022-12-20T13:21:19.845Z,100589.52
2022-12-20T13:24:30.298Z,100594.73
2022-12-20T13:27:05.012Z,100593.84
2022-12-20T13:29:38.700Z,100578.93
2022-12-20T13:33:11.147Z,100569.98
2022-12-20T13:36:03.380Z,100591.52
2022-12-20T13:38:53.072Z,100593.84
2022-12-20T13:41:44.269Z,100592.58
2022-12-20T13:44:18.350Z,100576.88
2022-12-20T13:47:14.410Z,100556.73
2022-12-20T13:49:46.077Z,100541.60
2022-12-20T13:52:33.717Z,100539.91
2022-12-20T13:55:17.414Z,100532.30
2022-12-20T13:57:48.516Z,100539.26
2022-12-20T14:00:29.226Z,100538.23
2022-12-20T14:03:02.371Z,100533.68
2022-12-20T14:05:35.682Z,100538.94
2022-12-20T14:08:18.164Z,100539.90
2022-12-20T14:10:49.193Z,100533.91
2022-12-20T14:13:29.918Z,100523.77
2022-12-20T14:16:10.307Z,100515.65
2022-12-20T14:18:41.739Z,100531.73
2022-12-20T14:21:13.200Z,100536.94
2022-12-20T14:23:50.162Z,100525.42
2022-12-20T14:26:26.016Z,100514.16
2022-12-20T14:28:58.834Z,100515.66
2022-12-20T14:31:34.366Z,100524.14
2022-12-20T14:34:17.028Z,100522.13
2022-12-20T14:36:49.979Z,100524.42
2022-12-20T14:39:28.145Z,100515.27
2022-12-20T14:42:05.283Z,100510.60
2022-12-20T14:44:37.155Z,100493.98
2022-12-20T14:47:23.821Z,100488.64
2022-12-20T14:50:29.854Z,100501.40
2022-12-20T14:53:02.669Z,100509.93
2022-12-20T14:55:40.835Z,100506.52
2022-12-20T14:58:32.618Z,100509.33
2022-12-20T15:01:26.485Z,100495.78
2022-12-20T15:03:59.637Z,100478.23
2022-12-20T15:06:34.767Z,100470.90
2022-12-20T15:09:06.190Z,100470.56
2022-12-20T15:11:38.369Z,100458.70
2022-12-20T15:14:30.297Z,100456.62
2022-12-20T15:17:01.163Z,100452.96
2022-12-20T15:19:38.852Z,100459.15
2022-12-20T15:22:19.228Z,100462.46
2022-12-20T15:24:51.339Z,100467.98
2022-12-20T15:27:22.355Z,100471.11
2022-12-20T15:29:57.601Z,100473.35
2022-12-20T15:32:31.245Z,100461.43
2022-12-20T15:35:01.790Z,100458.14
2022-12-20T15:37:32.889Z,100456.72
2022-12-20T15:40:03.306Z,100443.72
2022-12-20T15:42:35.014Z,100440.73
2022-12-20T15:45:06.368Z,100457.11
2022-12-20T15:47:38.427Z,100466.73
2022-12-20T15:50:11.337Z,100467.37
2022-12-20T15:52:42.233Z,100460.14
2022-12-20T15:55:13.060Z,100454.95
2022-12-20T15:57:46.416Z,100453.85
2022-12-20T16:00:18.010Z,100446.54
2022-12-20T16:02:51.972Z,100437.49
2022-12-20T16:05:32.585Z,100431.28
2022-12-20T16:08:03.195Z,100433.44
2022-12-20T16:10:35.141Z,100434.05
2022-12-20T16:13:04.979Z,100436.20
2022-12-20T16:15:33.859Z,100433.25
2022-12-20T16:18:02.538Z,100432.41
2022-12-20T16:20:31.434Z,100436.20
2022-12-20T16:23:00.420Z,100432.62
2022-12-20T16:25:32.476Z,100432.21
2022-12-20T16:28:01.072Z,100434.66
2022-12-20T16:30:29.852Z,100438.52
2022-12-20T16:32:59.654Z,100431.35
2022-12-20T16:35:38.883Z,100429.17
2022-12-20T16:38:07.565Z,100422.48
2022-12-20T16:40:36.301Z,100428.06
2022-12-20T16:43:05.037Z,100431.92
2022-12-20T16:45:34.986Z,100442.03
2022-12-20T16:48:03.541Z,100441.22
2022-12-20T16:50:32.327Z,100442.23
2022-12-20T16:53:01.434Z,100443.91
2022-12-20T16:55:39.305Z,100450.55
2022-12-20T16:58:08.754Z,100449.90
2022-12-20T17:00:38.406Z,100445.42
2022-12-20T17:03:07.376Z,100449.94
2022-12-20T17:05:37.613Z,100453.98
2022-12-20T17:10:54.600Z,100432.02
2022-12-20T17:13:23.161Z,100430.27
2022-12-20T17:15:52.102Z,100430.95
2022-12-20T17:18:21.147Z,100424.34
2022-12-20T17:20:49.994Z,100421.58
2022-12-20T17:26:05.127Z,100453.92
2022-12-20T17:28:33.733Z,100449.27
2022-12-20T17:31:07.819Z,100446.98
2022-12-20T17:33:38.256Z,100442.41
2022-12-20T17:36:07.472Z,100432.31
2022-12-20T17:38:36.254Z,100420.13
2022-12-20T17:41:06.046Z,100429.41
2022-12-20T17:43:34.524Z,100436.79
2022-12-20T17:46:03.263Z,100438.23
2022-12-20T17:48:34.008Z,100430.08
2022-12-20T17:51:31.001Z,100451.92
2022-12-20T17:54:03.832Z,100452.89
2022-12-20T17:56:36.350Z,100452.02
2022-12-20T17:59:05.044Z,100437.33
2022-12-20T18:01:35.980Z,100433.19
2022-12-20T18:04:07.784Z,100432.98
2022-12-20T18:06:40.732Z,100426.89
2022-12-20T18:09:19.854Z,100428.79
2022-12-20T18:11:48.876Z,100431.19
2022-12-20T18:14:18.052Z,100437.16
2022-12-20T18:16:46.884Z,100436.50
2022-12-20T18:19:18.909Z,100435.67
2022-12-20T18:21:47.786Z,100426.75
2022-12-20T18:24:16.994Z,100430.31
2022-12-20T18:26:45.998Z,100434.65
2022-12-20T18:29:15.091Z,100423.79
2022-12-20T18:31:44.498Z,100412.59
2022-12-20T18:34:13.892Z,100402.06
2022-12-20T18:36:43.266Z,100408.34
2022-12-20T18:39:13.701Z,100401.81
2022-12-20T18:41:44.740Z,100390.10
2022-12-20T18:44:14.495Z,100398.25
2022-12-20T18:46:43.159Z,100398.38
2022-12-20T18:49:12.575Z,100402.00
2022-12-20T18:51:41.663Z,100400.64
2022-12-20T18:54:11.667Z,100386.13
2022-12-20T18:56:41.274Z,100370.48
2022-12-20T18:59:12.966Z,100371.66
2022-12-20T19:01:43.914Z,100361.75
2022-12-20T19:04:15.055Z,100356.95
2022-12-20T19:06:46.458Z,100356.29
2022-12-20T19:09:15.758Z,100353.05
2022-12-20T19:11:49.245Z,100354.53
2022-12-20T19:14:28.704Z,100361.84
2022-12-20T19:16:58.513Z,100367.23
2022-12-20T19:19:29.297Z,100366.55
2022-12-20T19:22:00.184Z,100361.95
2022-12-20T19:24:29.597Z,100355.76
2022-12-20T19:26:59.102Z,100355.96
2022-12-20T19:29:29.906Z,100347.18
2022-12-20T19:32:00.643Z,100339.70
2022-12-20T19:34:31.119Z,100340.78
2022-12-20T19:37:00.995Z,100337.20
2022-12-20T19:39:31.737Z,100343.60
2022-12-20T19:42:23.572Z,100340.78
2022-12-20T19:44:51.314Z,100341.54
2022-12-20T19:47:22.224Z,100357.42
2022-12-20T19:49:51.992Z,100362.30
2022-12-20T19:52:29.583Z,100348.58
2022-12-20T19:55:00.794Z,100338.35
2022-12-20T19:57:30.531Z,100322.26
2022-12-20T20:00:00.014Z,100316.93
2022-12-20T20:02:30.449Z,100312.70
2022-12-20T20:05:00.675Z,100305.89
2022-12-20T20:07:29.781Z,100296.27
2022-12-20T20:09:59.058Z,100303.73
2022-12-20T20:12:29.613Z,100314.45
2022-12-20T20:14:58.698Z,100305.74
2022-12-20T20:17:27.463Z,100313.84
2022-12-20T20:19:56.875Z,100315.20
2022-12-20T20:22:26.822Z,100318.95
2022-12-20T20:24:55.786Z,100314.00
2022-12-20T20:27:27.467Z,100304.85
2022-12-20T20:30:00.056Z,100290.02
2022-12-20T20:32:31.947Z,100280.74
2022-12-20T20:35:02.040Z,100277.25
2022-12-20T20:37:31.914Z,100280.48
2022-12-20T20:40:02.144Z,100283.98
2022-12-20T20:42:33.932Z,100291.39
2022-12-20T20:45:03.344Z,100285.45
2022-12-20T20:47:33.396Z,100281.73
2022-12-20T20:50:03.756Z,100274.80
2022-12-20T20:52:34.936Z,100268.69
2022-12-20T20:55:07.141Z,100266.44
2022-12-20T20:57:35.834Z,100265.48
2022-12-20T21:00:06.585Z,100264.77
2022-12-20T21:02:37.169Z,100257.81
2022-12-20T21:05:59.845Z,100261.71
2022-12-20T21:07:56.174Z,100285.13
2022-12-20T21:10:25.956Z,100282.03
2022-12-20T21:12:54.878Z,100272.77
2022-12-20T21:15:26.380Z,100272.55
2022-12-20T21:17:55.823Z,100273.82
2022-12-20T21:20:26.530Z,100282.34
2022-12-20T21:22:55.673Z,100276.61
2022-12-20T21:25:24.652Z,100275.08
2022-12-20T21:27:53.635Z,100268.19
2022-12-20T21:30:22.859Z,100262.16
2022-12-20T21:32:51.946Z,100254.02
2022-12-20T21:35:20.918Z,100242.40
2022-12-20T21:37:49.397Z,100239.59
2022-12-20T21:40:18.696Z,100244.09
2022-12-20T21:42:50.328Z,100253.23
2022-12-20T21:45:19.676Z,100247.66
2022-12-20T21:47:48.765Z,100251.27
2022-12-20T21:50:17.825Z,100265.44
2022-12-20T21:52:46.855Z,100261.47
2022-12-20T21:55:16.612Z,100246.14
2022-12-20T21:57:48.628Z,100243.82
2022-12-20T22:00:17.683Z,100238.59
2022-12-20T22:02:47.594Z,100238.80
2022-12-20T22:05:16.723Z,100243.02
2022-12-20T22:07:47.224Z,100237.19
2022-12-20T22:10:16.550Z,100221.30
2022-12-20T22:12:45.022Z,100225.58
2022-12-20T22:15:14.319Z,100230.19
2022-12-20T22:17:43.031Z,100218.56
2022-12-20T22:20:11.694Z,100219.22
2022-12-20T22:22:41.631Z,100214.73
2022-12-20T22:25:10.415Z,100215.14
2022-12-20T22:27:39.489Z,100226.96
2022-12-20T22:30:09.254Z,100210.29
2022-12-20T22:32:37.889Z,100195.20
2022-12-20T22:35:07.325Z,100201.69
2022-12-20T22:37:36.002Z,100210.31
2022-12-20T22:40:05.480Z,100206.36
2022-12-20T22:42:33.961Z,100201.94
2022-12-20T22:45:02.670Z,100204.06
2022-12-20T22:47:32.260Z,100201.14
2022-12-20T22:50:00.971Z,100194.65
2022-12-20T22:52:29.730Z,100186.85
2022-12-20T22:54:59.649Z,100183.98
2022-12-20T22:57:28.353Z,100184.46
2022-12-20T22:59:59.073Z,100178.21
2022-12-20T23:02:28.489Z,100166.27
2022-12-20T23:04:57.401Z,100157.86
2022-12-20T23:07:27.061Z,100147.48
2022-12-20T23:09:55.554Z,100140.02
2022-12-20T23:12:42.706Z,100147.16
2022-12-20T23:15:31.927Z,100151.61
2022-12-20T23:18:00.733Z,100136.69
2022-12-20T23:20:47.952Z,100129.60
2022-12-20T23:23:16.730Z,100141.52
2022-12-20T23:25:45.411Z,100140.41
2022-12-20T23:28:14.116Z,100139.23
2022-12-20T23:30:42.591Z,100152.59
2022-12-20T23:33:11.174Z,100159.48
2022-12-20T23:35:40.263Z,100146.67
2022-12-20T23:38:08.753Z,100146.51
2022-12-20T23:40:40.925Z,100154.49
2022-12-20T23:43:11.332Z,100149.02
2022-12-20T23:45:39.934Z,100160.45
2022-12-20T23:48:08.596Z,100159.55
2022-12-20T23:50:37.193Z,100161.39
2022-12-20T23:53:06.693Z,100163.01
2022-12-20T23:55:35.393Z,100157.73
2022-12-20T23:58:03.976Z,100163.98
